Soaring Guidance
Issued by NWS Reno, NV

Home | Current Version | Previous Version | Text Only | Print | Product List | Glossary On
Versions: 1 2 3 4 5 6 7 8 9 10 11 12 13
000
UXUS97 KREV 271446
SRGREV

SOARING FORECAST
NATIONAL WEATHER SERVICE - RENO NV
700 AM PST MON FEB 27 2017

THIS SOARING FORECAST IS FOR THE EASTERN SIERRA AND WESTERN NEVADA
WITH SPECIFIC INDICES FOR THE GREATER RENO AREA.

THIS FORECAST IS PREPARED DAILY BY 700 AM AND IS NOT UPDATED.

FOR CURRENT FLIGHT CONDITIONS...FORECASTS...AND ADVISORIES...ACCESS
YOUR LOCAL BRIEFING OUTLET OR FLIGHT SERVICE STATION.

*******************************************************************
FORECASTED LOCAL INDICES FOR RENO:        TODAY     YESTERDAY
FORECASTED MAX TEMP AT RENO (DEG F).....     39          47
FORECASTED TRIGGER TEMPERATURE (DEG F)..     33          35
   EXCEEDED YESTERDAY BY 1055 AM PST
FORECASTED MAXIMUM ALTITUDE (FT MSL)....  13800       11900
FORECASTED SOARING INDEX (FPM)..........    804         537
FORECASTED K-INDEX.........VALID 18Z....      5          -5
FORECASTED K-INDEX.........VALID 00Z....      5           6
FORECASTED LIFTED INDEX....VALID 18Z....      8           7
FORECASTED LIFTED INDEX....VALID 00Z....      6           7

AFTERNOON WINDS ALOFT FORECAST
MSL (FT) WIND/TEMP
9000  2612/-11
10000 2712/-13
12000 2913/-19
14000 2816/-21
16000 2819/-24
18000 2828/-27
24000 2836/-39
30000 2834/-51
34000 2734/-55
39000 2741/-55

SLIDE MOUNTAIN DATA:
     DATE       TIME     TEMP  DEWPT   RH         WIND (MPH)
                        (F)   (F)           | DIR  SPEED GUST
2017-02-27    05:30       8     6     89    | 309   44   55
2017-02-27    05:20       8     6     90    | 309   45   56
2017-02-27    05:00       8     6     90    | 309   46   61
2017-02-27    04:50       8     7     90    | 309   44   66

RENO TAF FORECAST:
KRNO 271135Z 2712/2812 30010G16KT P6SM VCSH SCT040 BKN060
      TEMPO 2712/2715 3SM -SHSN BKN030
     FM271800 31011KT P6SM SCT050 BKN200
     FM280300 VRB03KT P6SM SCT070 BKN180

CARSON CITY TAF FORECAST:
KCXP 271135Z 2712/2812 26010KT P6SM VCSH BKN035 OVC050
      TEMPO 2712/2715 3SM -SHSN BKN030
     FM271800 26009KT P6SM SCT040 BKN200
     FM280300 VRB03KT P6SM SCT060 BKN180

OUTLOOK FOR THE RENO-CARSON CITY-MINDEN AREA:
.TUESDAY...PARTLY CLOUDY WITH A SLIGHT CHANCE OF SNOW SHOWERS IN
THE MORNING, THEN SUNNY IN THE AFTERNOON. HIGHS 38 TO 43. WEST
WINDS AROUND 10 MPH IN THE MORNING BECOMING LIGHT.

SUNRISE AND SUNSET
FEBRUARY 27 2017......SUNRISE   634 AM PST   SUNSET   550 PM PST
FEBRUARY 28 2017......SUNRISE   633 AM PST   SUNSET   551 PM PST


USA.gov is the U.S. government's official web portal to all federal, state and local government web resources and services.